createdAt,value
2019-06-20T04:48:52.159Z,2.30
2019-06-20T04:51:54.346Z,1.90
2019-06-20T04:54:56.414Z,1.80
2019-06-20T04:57:58.581Z,2.10
2019-06-20T05:01:00.702Z,2.00
2019-06-20T05:04:02.783Z,2.00
2019-06-20T05:07:04.879Z,2.00
2019-06-20T05:10:18.487Z,2.90
2019-06-20T05:13:21.885Z,2.60
2019-06-20T05:16:24.171Z,2.40
2019-06-20T05:19:26.226Z,2.40
2019-06-20T05:22:33.382Z,3.10
2019-06-20T05:25:35.524Z,2.60
2019-06-20T05:28:37.637Z,2.60
2019-06-20T05:31:39.939Z,3.60
2019-06-20T05:34:42.347Z,6.00
2019-06-20T05:37:44.397Z,3.10
2019-06-20T05:40:46.521Z,2.90
2019-06-20T05:43:51.400Z,3.10
2019-06-20T05:47:01.711Z,3.70
2019-06-20T05:50:15.991Z,2.70
2019-06-20T05:53:18.521Z,2.80
2019-06-20T05:56:21.075Z,2.90
2019-06-20T05:59:23.287Z,3.60
2019-06-20T06:02:27.102Z,3.80
2019-06-20T06:05:29.348Z,3.00
2019-06-20T06:08:31.441Z,2.60
2019-06-20T06:11:34.110Z,3.00
2019-06-20T06:14:36.518Z,3.10
2019-06-20T06:17:38.757Z,3.20
2019-06-20T06:20:44.535Z,2.90
2019-06-20T06:23:47.361Z,2.70
2019-06-20T06:26:49.526Z,3.00
2019-06-20T06:29:51.659Z,2.70
2019-06-20T06:33:11.110Z,2.50
2019-06-20T06:36:13.501Z,2.50
2019-06-20T06:39:15.643Z,2.60
2019-06-20T06:42:17.834Z,2.00
2019-06-20T06:45:20.235Z,2.60
2019-06-20T06:48:23.032Z,2.20
2019-06-20T06:51:27.745Z,2.40
2019-06-20T06:54:30.166Z,2.30
2019-06-20T06:57:32.234Z,1.90
2019-06-20T07:00:34.371Z,2.30
2019-06-20T07:03:36.480Z,2.30
2019-06-20T07:06:38.710Z,2.40
2019-06-20T07:09:40.996Z,2.20
2019-06-20T07:12:45.686Z,2.20
2019-06-20T07:15:47.923Z,2.00
2019-06-20T07:18:50.022Z,2.20
2019-06-20T07:21:52.445Z,2.20
2019-06-20T07:24:54.620Z,2.40
2019-06-20T07:27:56.827Z,2.10
2019-06-20T07:31:03.972Z,2.20
2019-06-20T07:34:06.147Z,2.20
2019-06-20T07:37:08.404Z,1.80
2019-06-20T07:40:10.650Z,1.90
2019-06-20T07:43:12.992Z,2.20
2019-06-20T07:46:33.784Z,2.10
2019-06-20T07:49:35.882Z,2.30
2019-06-20T07:52:38.134Z,1.90
2019-06-20T07:55:40.384Z,2.10
2019-06-20T07:58:42.559Z,2.40
2019-06-20T08:01:44.784Z,2.00
2019-06-20T08:04:46.939Z,1.90
2019-06-20T08:07:51.840Z,2.20
2019-06-20T08:10:53.986Z,2.20
2019-06-20T08:14:03.752Z,2.40
2019-06-20T08:17:06.058Z,2.40
2019-06-20T08:20:08.162Z,2.80
2019-06-20T08:23:11.560Z,2.40
2019-06-20T08:26:13.887Z,2.10
2019-06-20T08:29:20.950Z,2.50
2019-06-20T08:32:23.633Z,2.20
2019-06-20T08:35:29.931Z,2.70
2019-06-20T08:38:36.014Z,2.50
2019-06-20T08:41:38.065Z,2.40
2019-06-20T08:44:40.185Z,2.60
2019-06-20T08:47:44.830Z,2.40
2019-06-20T08:50:46.847Z,3.00
2019-06-20T08:53:48.946Z,2.90
2019-06-20T08:56:51.144Z,2.50
2019-06-20T08:59:55.929Z,2.80
2019-06-20T09:06:06.944Z,2.50
2019-06-20T09:09:09.158Z,2.30
2019-06-20T09:12:11.216Z,2.30
2019-06-20T09:15:13.341Z,2.40
2019-06-20T09:18:15.883Z,2.50
2019-06-20T09:21:17.917Z,2.30
2019-06-20T09:24:24.562Z,2.40
2019-06-20T09:27:27.813Z,2.50
2019-06-20T09:30:31.107Z,2.10
2019-06-20T09:33:36.090Z,2.10
2019-06-20T09:36:38.164Z,2.30
2019-06-20T09:39:40.298Z,2.30
2019-06-20T09:42:42.392Z,2.20
2019-06-20T09:45:44.720Z,2.20
2019-06-20T09:48:50.990Z,1.80
2019-06-20T09:51:56.606Z,2.10
2019-06-20T09:54:59.123Z,1.80
2019-06-20T09:58:03.884Z,1.80
2019-06-20T10:01:06.084Z,1.80
2019-06-20T10:04:09.285Z,1.50
2019-06-20T10:07:11.364Z,1.70
2019-06-20T10:10:17.128Z,1.40
2019-06-20T10:13:20.244Z,2.70
2019-06-20T10:16:23.897Z,1.80
2019-06-20T10:19:27.195Z,1.70
2019-06-20T10:22:29.255Z,1.90
2019-06-20T10:25:31.374Z,1.50
2019-06-20T10:28:33.592Z,1.70
2019-06-20T10:31:35.730Z,1.60
2019-06-20T10:34:37.848Z,1.60
2019-06-20T10:37:39.935Z,1.80
2019-06-20T10:40:44.675Z,1.80
2019-06-20T10:43:49.489Z,2.00
2019-06-20T10:46:51.714Z,2.30
2019-06-20T10:49:53.857Z,1.80
2019-06-20T10:52:55.985Z,2.00
2019-06-20T10:55:58.243Z,2.20
2019-06-20T10:59:02.121Z,1.90
2019-06-20T11:02:07.372Z,2.30
2019-06-20T11:05:13.331Z,2.30
2019-06-20T11:08:18.441Z,2.60
2019-06-20T11:11:20.702Z,3.00
2019-06-20T11:14:25.554Z,3.40
2019-06-20T11:17:27.635Z,2.90
2019-06-20T11:20:29.734Z,2.20
2019-06-20T11:23:32.068Z,2.40
2019-06-20T11:26:34.269Z,2.80
2019-06-20T11:29:36.835Z,2.70
2019-06-20T11:32:40.982Z,3.00
2019-06-20T11:35:43.477Z,2.40
2019-06-20T11:38:46.843Z,2.10
2019-06-20T11:41:49.212Z,3.00
2019-06-20T11:44:51.370Z,3.60
2019-06-20T11:47:53.472Z,5.60
2019-06-20T11:50:55.607Z,3.40
2019-06-20T11:53:57.689Z,3.40
2019-06-20T11:56:59.941Z,4.10
2019-06-20T12:00:02.129Z,3.70
2019-06-20T12:03:05.919Z,4.50
2019-06-20T12:06:12.351Z,4.70
2019-06-20T12:09:17.235Z,4.50
2019-06-20T12:12:19.542Z,4.50
2019-06-20T12:15:24.103Z,5.30
2019-06-20T12:18:26.165Z,3.80
2019-06-20T12:21:28.244Z,3.30
2019-06-20T12:24:30.144Z,2.90
2019-06-20T12:27:32.247Z,3.30
2019-06-20T12:30:34.378Z,3.10
2019-06-20T12:33:36.506Z,3.40
2019-06-20T12:36:42.425Z,3.40
2019-06-20T12:39:44.668Z,2.90
2019-06-20T12:42:46.910Z,3.50
2019-06-20T12:45:53.988Z,3.10
2019-06-20T12:48:56.033Z,3.30
2019-06-20T12:51:58.115Z,4.10
2019-06-20T12:55:02.706Z,3.20
2019-06-20T12:58:05.394Z,3.60
2019-06-20T13:01:15.245Z,3.60
2019-06-20T13:04:18.727Z,3.30
2019-06-20T13:07:23.340Z,3.50
2019-06-20T13:10:25.400Z,3.00
2019-06-20T13:13:32.617Z,3.20
2019-06-20T13:16:34.695Z,3.40
2019-06-20T13:19:37.737Z,3.80
2019-06-20T13:22:42.827Z,3.20
2019-06-20T13:25:46.808Z,3.40
2019-06-20T13:32:34.072Z,3.90
2019-06-20T13:35:36.296Z,3.30
2019-06-20T13:38:39.846Z,3.30
2019-06-20T13:41:45.703Z,2.80
2019-06-20T13:44:52.117Z,2.80
2019-06-20T13:47:54.255Z,2.90
2019-06-20T13:50:56.269Z,2.90
2019-06-20T13:53:58.226Z,3.20
2019-06-20T13:57:00.237Z,2.40
2019-06-20T14:00:02.328Z,2.20
2019-06-20T14:03:15.068Z,2.20
2019-06-20T14:06:17.985Z,2.80
2019-06-20T14:09:21.074Z,3.00
2019-06-20T14:12:24.718Z,2.70
2019-06-20T14:15:29.226Z,3.00
2019-06-20T14:18:31.294Z,3.00
2019-06-20T14:21:33.437Z,2.90
2019-06-20T14:24:35.568Z,3.70
2019-06-20T14:27:40.145Z,3.90
2019-06-20T14:30:43.194Z,3.60
2019-06-20T14:33:48.558Z,3.30
2019-06-20T14:36:51.919Z,3.40
2019-06-20T14:39:57.017Z,4.40
2019-06-20T14:42:59.269Z,3.00
2019-06-20T14:46:01.541Z,4.50
2019-06-20T14:49:03.673Z,3.50
2019-06-20T14:52:05.721Z,3.80
2019-06-20T14:55:16.341Z,3.90
2019-06-20T14:58:20.950Z,4.20
2019-06-20T15:01:22.993Z,4.80
2019-06-20T15:04:26.663Z,3.40
2019-06-20T15:07:33.711Z,2.80
2019-06-20T15:10:35.751Z,3.40
2019-06-20T15:13:37.749Z,3.30
2019-06-20T15:16:39.761Z,3.60
2019-06-20T15:19:44.859Z,3.70
2019-06-20T15:22:50.799Z,3.50
2019-06-20T15:25:56.075Z,3.40
2019-06-20T15:28:58.229Z,3.30
2019-06-20T15:32:00.515Z,3.50
2019-06-20T15:35:02.592Z,3.90
2019-06-20T15:38:04.918Z,4.10
2019-06-20T15:41:07.028Z,3.60
2019-06-20T15:44:09.048Z,4.50
2019-06-20T15:47:11.152Z,4.40
2019-06-20T15:50:13.259Z,3.10
2019-06-20T15:53:15.638Z,3.50
2019-06-20T15:56:17.720Z,3.00
2019-06-20T15:59:20.001Z,2.80
2019-06-20T16:02:22.067Z,2.80
2019-06-20T16:05:24.607Z,3.30
2019-06-20T16:08:34.250Z,3.40
2019-06-20T16:11:36.274Z,2.80
2019-06-20T16:14:38.219Z,3.70
2019-06-20T16:17:40.270Z,3.40
2019-06-20T16:20:42.355Z,4.90
2019-06-20T16:23:44.773Z,4.30
2019-06-20T16:26:46.876Z,3.50
2019-06-20T16:29:48.941Z,2.70
2019-06-20T16:32:51.109Z,2.50
2019-06-20T16:35:55.541Z,2.40
2019-06-20T16:38:57.573Z,2.80
2019-06-20T16:41:59.582Z,2.40
2019-06-20T16:45:01.748Z,2.40
2019-06-20T16:48:04.762Z,2.50
2019-06-20T16:51:06.936Z,2.40
2019-06-20T16:54:09.026Z,2.60
2019-06-20T16:57:11.133Z,2.70
2019-06-20T17:00:13.325Z,3.30
2019-06-20T17:03:20.787Z,2.90
2019-06-20T17:06:22.991Z,3.20
2019-06-20T17:09:25.010Z,3.20
2019-06-20T17:12:29.591Z,4.50
2019-06-20T17:15:31.764Z,3.30
2019-06-20T17:18:34.005Z,3.00
2019-06-20T17:21:36.368Z,3.10
2019-06-20T17:24:38.506Z,3.10
2019-06-20T17:27:40.512Z,3.40
2019-06-20T17:30:45.201Z,3.00
2019-06-20T17:33:57.017Z,3.60
2019-06-20T17:37:00.031Z,3.20
2019-06-20T17:40:02.143Z,3.70
2019-06-20T17:43:10.538Z,3.10
2019-06-20T17:46:12.600Z,3.40
2019-06-20T17:49:14.673Z,3.00
2019-06-20T17:52:16.822Z,3.00
2019-06-20T17:55:18.901Z,3.40
2019-06-20T17:58:21.083Z,3.40
2019-06-20T18:01:23.131Z,3.00
2019-06-20T18:04:26.827Z,3.90
2019-06-20T18:07:29.102Z,3.60
2019-06-20T18:10:31.137Z,3.20
2019-06-20T18:13:33.228Z,3.40
2019-06-20T18:16:54.585Z,3.60
2019-06-20T18:19:56.669Z,3.70
2019-06-20T18:22:58.812Z,3.50
2019-06-20T18:26:02.492Z,3.20
2019-06-20T18:29:04.624Z,3.40
2019-06-20T18:32:06.735Z,3.50
2019-06-20T18:35:08.890Z,3.60
2019-06-20T18:38:10.979Z,3.50
2019-06-20T18:41:13.143Z,3.90
2019-06-20T18:44:15.328Z,3.80
2019-06-20T18:47:21.945Z,4.30
2019-06-20T18:50:24.366Z,5.10
2019-06-20T18:53:26.472Z,3.90
2019-06-20T18:56:28.613Z,3.50
2019-06-20T18:59:32.703Z,3.90
2019-06-20T19:02:34.977Z,4.70
2019-06-20T19:05:37.247Z,4.50
2019-06-20T19:08:39.355Z,4.20
2019-06-20T19:11:41.417Z,4.10
2019-06-20T19:14:43.596Z,4.40
2019-06-20T19:17:45.723Z,4.20
2019-06-20T19:20:47.964Z,4.00
2019-06-20T19:23:50.170Z,4.20
2019-06-20T19:26:52.359Z,4.40
2019-06-20T19:29:54.359Z,4.90
2019-06-20T19:32:56.360Z,7.10
2019-06-20T19:35:58.419Z,4.60
2019-06-20T19:39:00.413Z,5.70
2019-06-20T19:42:02.452Z,5.10
2019-06-20T19:45:04.555Z,5.10
2019-06-20T19:48:08.359Z,4.30
2019-06-20T19:51:14.144Z,4.60
2019-06-20T19:54:16.712Z,4.80
2019-06-20T19:57:18.939Z,4.70
2019-06-20T20:00:21.015Z,5.40
2019-06-20T20:03:23.207Z,4.60
2019-06-20T20:06:29.137Z,4.80
2019-06-20T20:09:31.429Z,4.00
2019-06-20T20:12:33.684Z,5.50
2019-06-20T20:15:35.797Z,4.30
2019-06-20T20:18:37.838Z,4.30
2019-06-20T20:21:39.953Z,5.40
2019-06-20T20:24:41.988Z,5.10
2019-06-20T20:27:44.013Z,4.50
2019-06-20T20:30:46.031Z,5.20
2019-06-20T20:33:50.643Z,5.70
2019-06-20T20:37:26.448Z,5.50
2019-06-20T20:40:28.440Z,5.20
2019-06-20T20:43:30.479Z,5.50
2019-06-20T20:46:35.282Z,6.10
2019-06-20T20:49:37.206Z,6.90
2019-06-20T20:52:39.398Z,12.70
2019-06-20T20:55:41.518Z,6.60
2019-06-20T20:58:43.547Z,5.90
2019-06-20T21:01:45.539Z,6.00
2019-06-20T21:04:53.006Z,5.80
2019-06-20T21:07:55.095Z,6.10
2019-06-20T21:11:04.757Z,5.70
2019-06-20T21:14:06.815Z,6.10
2019-06-20T21:17:08.950Z,6.90
2019-06-20T21:20:11.210Z,6.50
2019-06-20T21:23:16.285Z,6.00
2019-06-20T21:26:18.457Z,5.40
2019-06-20T21:29:23.104Z,6.80
2019-06-20T21:32:25.224Z,5.70
2019-06-20T21:35:27.429Z,6.30
2019-06-20T21:38:30.272Z,7.20
2019-06-20T21:41:32.413Z,5.60
2019-06-20T21:44:42.180Z,6.00
2019-06-20T21:47:44.207Z,6.10
2019-06-20T21:50:48.775Z,5.70
2019-06-20T21:53:50.933Z,5.70
2019-06-20T21:56:52.944Z,4.90
2019-06-20T21:59:55.071Z,5.50
2019-06-20T22:02:57.416Z,6.40
2019-06-20T22:05:59.555Z,7.30
2019-06-20T22:09:01.787Z,8.30
2019-06-20T22:12:06.623Z,6.50
2019-06-20T22:15:08.755Z,6.50
2019-06-20T22:18:11.073Z,7.00
2019-06-20T22:21:13.171Z,6.80
2019-06-20T22:24:15.334Z,6.50
2019-06-20T22:27:17.326Z,6.40
2019-06-20T22:30:19.408Z,7.40
2019-06-20T22:33:50.435Z,5.90
2019-06-20T22:36:52.457Z,5.90
2019-06-20T22:39:54.566Z,5.90
2019-06-20T22:42:56.574Z,6.00
2019-06-20T22:45:58.811Z,5.50
2019-06-20T22:49:00.789Z,5.50
2019-06-20T22:52:02.867Z,5.60
2019-06-20T22:55:05.266Z,5.60
2019-06-20T22:58:07.827Z,5.50
2019-06-20T23:01:10.476Z,7.90
2019-06-20T23:04:12.580Z,7.00
2019-06-20T23:07:27.569Z,7.70
2019-06-20T23:10:41.937Z,8.20
2019-06-20T23:13:44.148Z,7.50
2019-06-20T23:16:46.179Z,7.60
2019-06-20T23:19:48.442Z,7.00
2019-06-20T23:22:50.542Z,7.30
2019-06-20T23:25:55.232Z,7.10
2019-06-20T23:28:57.276Z,7.00
2019-06-20T23:31:59.217Z,7.10
2019-06-20T23:35:02.103Z,7.30
2019-06-20T23:38:05.449Z,6.60
2019-06-20T23:41:07.980Z,9.30
2019-06-20T23:44:10.108Z,10.90
2019-06-20T23:47:12.238Z,9.20
2019-06-20T23:50:14.425Z,9.30
2019-06-20T23:53:17.030Z,8.30
2019-06-20T23:56:19.149Z,9.20
2019-06-20T23:59:21.266Z,9.50
